Time,TemperatureF,DewpointF,PressureIn,WindDirection,WindDirectionDegrees,WindSpeedMPH,WindSpeedGustMPH,Humidity,HourlyPrecipIn,Conditions,Clouds,dailyrainin,SolarRadiationWatts/m^2,SoftwareType,DateUTC
2013-02-22 00:12:00,67.0,67.0,-100.00,SSE,162,5.0,10.0,100,0.00,,,0.00,0.000000,,2013-02-22 06:12:00,
2013-02-22 00:22:00,67.0,67.0,-100.00,SSE,162,5.0,10.0,100,0.00,,,0.00,0.000000,,2013-02-22 06:22:00,
2013-02-22 00:32:00,67.0,67.0,-100.00,SSE,162,5.0,10.0,100,0.00,,,0.00,0.000000,,2013-02-22 06:32:00,
2013-02-22 00:42:00,67.0,67.0,-100.00,SSE,162,5.0,10.0,100,0.00,,,0.00,0.000000,,2013-02-22 06:42:00,
2013-02-22 00:51:00,66.0,66.0,-100.00,SSE,157,5.0,9.0,100,0.00,,,0.00,0.000000,,2013-02-22 06:51:00,
2013-02-22 01:21:00,66.0,66.0,-100.00,SSE,157,5.0,9.0,100,0.00,,,0.00,0.000000,,2013-02-22 07:21:00,
2013-02-22 01:31:00,66.0,66.0,-100.00,SSE,157,5.0,9.0,100,0.00,,,0.00,0.000000,,2013-02-22 07:31:00,
2013-02-22 01:42:00,66.0,66.0,-100.00,SSE,157,5.0,9.0,100,0.00,,,0.00,0.000000,,2013-02-22 07:42:00,
2013-02-22 01:51:00,67.0,67.0,-100.00,South,176,8.0,14.0,100,0.00,,,0.00,0.000000,,2013-02-22 07:51:00,
2013-02-22 02:11:00,67.0,67.0,-100.00,South,176,8.0,14.0,100,0.00,,,0.00,0.000000,,2013-02-22 08:11:00,
2013-02-22 02:21:00,67.0,67.0,-100.00,South,176,8.0,14.0,100,0.00,,,0.00,0.000000,,2013-02-22 08:21:00,
2013-02-22 02:31:00,67.0,67.0,-100.00,South,176,8.0,14.0,100,0.00,,,0.00,0.000000,,2013-02-22 08:31:00,
2013-02-22 02:41:00,67.0,67.0,-100.00,South,176,8.0,14.0,100,0.00,,,0.00,0.000000,,2013-02-22 08:41:00,
2013-02-22 02:51:00,67.0,67.0,-100.00,West,269,4.0,14.0,100,0.19,,,0.19,0.000000,,2013-02-22 08:51:00,
2013-02-22 03:21:00,67.0,67.0,-100.00,West,269,4.0,14.0,100,0.19,,,0.19,0.000000,,2013-02-22 09:21:00,
2013-02-22 03:32:00,67.0,67.0,-100.00,West,269,4.0,14.0,100,0.19,,,0.19,0.000000,,2013-02-22 09:32:00,
2013-02-22 03:42:00,67.0,67.0,-100.00,West,269,4.0,14.0,100,0.19,,,0.19,0.000000,,2013-02-22 09:42:00,
2013-02-22 03:51:00,66.0,66.0,-100.00,SW,229,3.0,7.0,100,0.00,,,0.19,0.000000,,2013-02-22 09:51:00,
2013-02-22 04:11:00,66.0,66.0,-100.00,SW,229,3.0,7.0,100,0.00,,,0.19,0.000000,,2013-02-22 10:11:00,
2013-02-22 04:21:00,66.0,66.0,-100.00,SW,229,3.0,7.0,100,0.00,,,0.19,0.000000,,2013-02-22 10:21:00,
2013-02-22 04:32:00,66.0,66.0,-100.00,SW,229,3.0,7.0,100,0.00,,,0.19,0.000000,,2013-02-22 10:32:00,
2013-02-22 04:42:00,66.0,66.0,-100.00,SW,229,3.0,7.0,100,0.00,,,0.19,0.000000,,2013-02-22 10:42:00,
2013-02-22 04:51:00,66.0,66.0,-100.00,NNW,333,3.0,6.0,100,0.03,,,0.22,0.000000,,2013-02-22 10:51:00,
2013-02-22 05:21:00,66.0,66.0,-100.00,NNW,333,3.0,6.0,100,0.03,,,0.22,0.000000,,2013-02-22 11:21:00,
2013-02-22 05:32:00,66.0,66.0,-100.00,NNW,333,3.0,6.0,100,0.03,,,0.22,0.000000,,2013-02-22 11:32:00,
2013-02-22 05:42:00,66.0,66.0,-100.00,NNW,333,3.0,6.0,100,0.03,,,0.22,0.000000,,2013-02-22 11:42:00,
2013-02-22 05:51:00,65.0,65.0,-100.00,North,356,2.0,10.0,100,0.04,,,0.26,0.000000,,2013-02-22 11:51:00,
2013-02-22 06:22:00,65.0,65.0,-100.00,North,356,2.0,10.0,100,0.04,,,0.26,0.000000,,2013-02-22 12:22:00,
2013-02-22 06:32:00,65.0,65.0,-100.00,North,356,2.0,10.0,100,0.04,,,0.26,0.000000,,2013-02-22 12:32:00,
2013-02-22 06:42:00,65.0,65.0,-100.00,North,356,2.0,10.0,100,0.04,,,0.26,0.000000,,2013-02-22 12:42:00,
2013-02-22 06:51:00,64.0,64.0,-100.00,North,355,2.0,4.0,100,0.00,,,0.26,0.000000,,2013-02-22 12:51:00,
2013-02-22 07:22:00,64.0,64.0,-100.00,North,355,2.0,4.0,100,0.00,,,0.26,0.000000,,2013-02-22 13:22:00,
2013-02-22 07:32:00,64.0,64.0,-100.00,North,355,2.0,4.0,100,0.00,,,0.26,0.000000,,2013-02-22 13:32:00,
2013-02-22 07:42:00,64.0,64.0,-100.00,North,355,2.0,4.0,100,0.00,,,0.26,0.000000,,2013-02-22 13:42:00,
2013-02-22 07:51:00,64.0,64.0,-100.00,NNE,24,3.0,6.0,100,0.00,,,0.26,18.000000,,2013-02-22 13:51:00,
2013-02-22 08:11:00,64.0,64.0,-100.00,NNE,24,3.0,6.0,100,0.00,,,0.26,18.000000,,2013-02-22 14:11:00,
2013-02-22 08:21:00,64.0,64.0,-100.00,NNE,24,3.0,6.0,100,0.00,,,0.26,18.000000,,2013-02-22 14:21:00,
2013-02-22 08:32:00,64.0,64.0,-100.00,NNE,24,3.0,6.0,100,0.00,,,0.26,18.000000,,2013-02-22 14:32:00,
2013-02-22 08:42:00,64.0,64.0,-100.00,NNE,24,3.0,6.0,100,0.00,,,0.26,18.000000,,2013-02-22 14:42:00,
2013-02-22 08:51:00,65.0,65.0,-100.00,NNE,23,4.0,11.0,100,0.00,,,0.26,56.000000,,2013-02-22 14:51:00,
2013-02-22 09:11:00,65.0,65.0,-100.00,NNE,23,4.0,11.0,100,0.00,,,0.26,56.000000,,2013-02-22 15:11:00,
2013-02-22 09:21:00,65.0,65.0,-100.00,NNE,23,4.0,11.0,100,0.00,,,0.26,56.000000,,2013-02-22 15:21:00,
2013-02-22 09:32:00,65.0,65.0,-100.00,NNE,23,4.0,11.0,100,0.00,,,0.26,56.000000,,2013-02-22 15:32:00,
2013-02-22 09:42:00,65.0,65.0,-100.00,NNE,23,4.0,11.0,100,0.00,,,0.26,56.000000,,2013-02-22 15:42:00,
2013-02-22 09:51:00,65.0,60.0,-100.00,NE,38,4.0,11.0,84,0.00,,,0.26,119.000000,,2013-02-22 15:51:00,
2013-02-22 10:22:00,65.0,60.0,-100.00,NE,38,4.0,11.0,84,0.00,,,0.26,119.000000,,2013-02-22 16:22:00,
2013-02-22 10:32:00,65.0,60.0,-100.00,NE,38,4.0,11.0,84,0.00,,,0.26,119.000000,,2013-02-22 16:32:00,
2013-02-22 10:42:00,65.0,60.0,-100.00,NE,38,4.0,11.0,84,0.00,,,0.26,119.000000,,2013-02-22 16:42:00,
2013-02-22 10:51:00,65.0,51.0,-100.00,NE,35,4.0,13.0,61,0.00,,,0.26,153.000000,,2013-02-22 16:51:00,
2013-02-22 11:21:00,65.0,51.0,-100.00,NE,35,4.0,13.0,61,0.00,,,0.26,153.000000,,2013-02-22 17:21:00,
2013-02-22 11:32:00,65.0,51.0,-100.00,NE,35,4.0,13.0,61,0.00,,,0.26,153.000000,,2013-02-22 17:32:00,
2013-02-22 11:42:00,65.0,51.0,-100.00,NE,35,4.0,13.0,61,0.00,,,0.26,153.000000,,2013-02-22 17:42:00,
2013-02-22 11:51:00,64.0,54.0,-100.00,NE,34,3.0,8.0,70,0.00,,,0.26,137.000000,,2013-02-22 17:51:00,
2013-02-22 12:22:00,64.0,54.0,-100.00,NE,34,3.0,8.0,70,0.00,,,0.26,137.000000,,2013-02-22 18:22:00,
2013-02-22 12:32:00,64.0,54.0,-100.00,NE,34,3.0,8.0,70,0.00,,,0.26,137.000000,,2013-02-22 18:32:00,
2013-02-22 12:42:00,64.0,54.0,-100.00,NE,34,3.0,8.0,70,0.00,,,0.26,137.000000,,2013-02-22 18:42:00,
2013-02-22 12:51:00,69.0,52.0,-100.00,NE,36,4.0,13.0,54,0.00,,,0.26,510.000000,,2013-02-22 18:51:00,
2013-02-22 13:11:00,69.0,52.0,-100.00,NE,36,4.0,13.0,54,0.00,,,0.26,510.000000,,2013-02-22 19:11:00,
2013-02-22 13:21:00,69.0,52.0,-100.00,NE,36,4.0,13.0,54,0.00,,,0.26,510.000000,,2013-02-22 19:21:00,
2013-02-22 13:31:00,69.0,52.0,-100.00,NE,36,4.0,13.0,54,0.00,,,0.26,510.000000,,2013-02-22 19:31:00,
2013-02-22 13:41:00,69.0,52.0,-100.00,NE,36,4.0,13.0,54,0.00,,,0.26,510.000000,,2013-02-22 19:41:00,
2013-02-22 13:51:00,70.0,55.0,-100.00,ENE,74,4.0,10.0,60,0.00,,,0.26,271.000000,,2013-02-22 19:51:00,
2013-02-22 14:11:00,70.0,55.0,-100.00,ENE,74,4.0,10.0,60,0.00,,,0.26,271.000000,,2013-02-22 20:11:00,
2013-02-22 14:21:00,70.0,55.0,-100.00,ENE,74,4.0,10.0,60,0.00,,,0.26,271.000000,,2013-02-22 20:21:00,
2013-02-22 14:32:00,70.0,55.0,-100.00,ENE,74,4.0,10.0,60,0.00,,,0.26,271.000000,,2013-02-22 20:32:00,
2013-02-22 14:41:00,70.0,55.0,-100.00,ENE,74,4.0,10.0,60,0.00,,,0.26,271.000000,,2013-02-22 20:41:00,
2013-02-22 14:51:00,69.0,55.0,-100.00,NE,36,2.0,8.0,62,0.00,,,0.26,180.000000,,2013-02-22 20:51:00,
2013-02-22 15:11:00,69.0,55.0,-100.00,NE,36,2.0,8.0,62,0.00,,,0.26,180.000000,,2013-02-22 21:11:00,
2013-02-22 15:21:00,69.0,55.0,-100.00,NE,36,2.0,8.0,62,0.00,,,0.26,180.000000,,2013-02-22 21:21:00,
2013-02-22 15:32:00,69.0,55.0,-100.00,NE,36,2.0,8.0,62,0.00,,,0.26,180.000000,,2013-02-22 21:32:00,
2013-02-22 15:42:00,69.0,55.0,-100.00,NE,36,2.0,8.0,62,0.00,,,0.26,180.000000,,2013-02-22 21:42:00,
2013-02-22 15:51:00,69.0,58.0,-100.00,North,9,1.0,4.0,68,0.00,,,0.26,67.000000,,2013-02-22 21:51:00,
2013-02-22 16:11:00,69.0,58.0,-100.00,North,9,1.0,4.0,68,0.00,,,0.26,67.000000,,2013-02-22 22:11:00,
2013-02-22 16:21:00,69.0,58.0,-100.00,North,9,1.0,4.0,68,0.00,,,0.26,67.000000,,2013-02-22 22:21:00,
2013-02-22 16:31:00,69.0,58.0,-100.00,North,9,1.0,4.0,68,0.00,,,0.26,67.000000,,2013-02-22 22:31:00,
2013-02-22 16:41:00,69.0,58.0,-100.00,North,9,1.0,4.0,68,0.00,,,0.26,67.000000,,2013-02-22 22:41:00,
2013-02-22 16:51:00,65.0,61.0,-100.00,NNW,334,3.0,6.0,87,0.01,,,0.27,37.000000,,2013-02-22 22:51:00,
2013-02-22 17:11:00,65.0,61.0,-100.00,NNW,334,3.0,6.0,87,0.01,,,0.27,37.000000,,2013-02-22 23:11:00,
2013-02-22 17:21:00,65.0,61.0,-100.00,NNW,334,3.0,6.0,87,0.01,,,0.27,37.000000,,2013-02-22 23:21:00,
2013-02-22 17:31:00,65.0,61.0,-100.00,NNW,334,3.0,6.0,87,0.01,,,0.27,37.000000,,2013-02-22 23:31:00,
2013-02-22 17:41:00,65.0,61.0,-100.00,NNW,334,3.0,6.0,87,0.01,,,0.27,37.000000,,2013-02-22 23:41:00,
2013-02-22 17:51:00,63.0,60.0,-100.00,NNE,13,3.0,7.0,89,0.00,,,0.27,13.000000,,2013-02-22 23:51:00,
2013-02-22 18:21:00,63.0,60.0,-100.00,NNE,13,3.0,7.0,89,0.00,,,0.27,13.000000,,2013-02-23 00:21:00,
2013-02-22 18:32:00,63.0,60.0,-100.00,NNE,13,3.0,7.0,89,0.00,,,0.27,13.000000,,2013-02-23 00:32:00,
2013-02-22 18:42:00,63.0,60.0,-100.00,NNE,13,3.0,7.0,89,0.00,,,0.27,13.000000,,2013-02-23 00:42:00,
2013-02-22 18:51:00,61.0,58.0,-100.00,NE,35,3.0,8.0,91,0.00,,,0.27,0.000000,,2013-02-23 00:51:00,
2013-02-22 19:11:00,61.0,58.0,-100.00,NE,35,3.0,8.0,91,0.00,,,0.27,0.000000,,2013-02-23 01:11:00,
2013-02-22 19:21:00,61.0,58.0,-100.00,NE,35,3.0,8.0,91,0.00,,,0.27,0.000000,,2013-02-23 01:21:00,
2013-02-22 19:32:00,61.0,58.0,-100.00,NE,35,3.0,8.0,91,0.00,,,0.27,0.000000,,2013-02-23 01:32:00,
2013-02-22 19:42:00,61.0,58.0,-100.00,NE,35,3.0,8.0,91,0.00,,,0.27,0.000000,,2013-02-23 01:42:00,
2013-02-22 19:51:00,61.0,59.0,-100.00,NNE,26,2.0,6.0,92,0.00,,,0.27,0.000000,,2013-02-23 01:51:00,
2013-02-22 20:11:00,61.0,59.0,-100.00,NNE,26,2.0,6.0,92,0.00,,,0.27,0.000000,,2013-02-23 02:11:00,
2013-02-22 20:21:00,61.0,59.0,-100.00,NNE,26,2.0,6.0,92,0.00,,,0.27,0.000000,,2013-02-23 02:21:00,
2013-02-22 20:31:00,61.0,59.0,-100.00,NNE,26,2.0,6.0,92,0.00,,,0.27,0.000000,,2013-02-23 02:31:00,
2013-02-22 20:42:00,61.0,59.0,-100.00,NNE,26,2.0,6.0,92,0.00,,,0.27,0.000000,,2013-02-23 02:42:00,
2013-02-22 20:51:00,61.0,60.0,-100.00,North,9,2.0,4.0,95,0.00,,,0.27,0.000000,,2013-02-23 02:51:00,
2013-02-22 21:11:00,61.0,60.0,-100.00,North,9,2.0,4.0,95,0.00,,,0.27,0.000000,,2013-02-23 03:11:00,
2013-02-22 21:21:00,61.0,60.0,-100.00,North,9,2.0,4.0,95,0.00,,,0.27,0.000000,,2013-02-23 03:21:00,
2013-02-22 21:32:00,61.0,60.0,-100.00,North,9,2.0,4.0,95,0.00,,,0.27,0.000000,,2013-02-23 03:32:00,
2013-02-22 21:41:00,61.0,60.0,-100.00,North,9,2.0,4.0,95,0.00,,,0.27,0.000000,,2013-02-23 03:41:00,
2013-02-22 21:51:00,60.0,60.0,-100.00,North,359,4.0,8.0,100,0.00,,,0.27,0.000000,,2013-02-23 03:51:00,
2013-02-22 22:11:00,60.0,60.0,-100.00,North,359,4.0,8.0,100,0.00,,,0.27,0.000000,,2013-02-23 04:11:00,
2013-02-22 22:21:00,60.0,60.0,-100.00,North,359,4.0,8.0,100,0.00,,,0.27,0.000000,,2013-02-23 04:21:00,
2013-02-22 22:31:00,60.0,60.0,-100.00,North,359,4.0,8.0,100,0.00,,,0.27,0.000000,,2013-02-23 04:31:00,
2013-02-22 22:41:00,60.0,60.0,-100.00,North,359,4.0,8.0,100,0.00,,,0.27,0.000000,,2013-02-23 04:41:00,
2013-02-22 22:51:00,59.0,59.0,-100.00,North,9,2.0,6.0,100,0.00,,,0.27,0.000000,,2013-02-23 04:51:00,
2013-02-22 23:12:00,59.0,59.0,-100.00,North,9,2.0,6.0,100,0.00,,,0.27,0.000000,,2013-02-23 05:12:00,
2013-02-22 23:22:00,59.0,59.0,-100.00,North,9,2.0,6.0,100,0.00,,,0.27,0.000000,,2013-02-23 05:22:00,
2013-02-22 23:32:00,59.0,59.0,-100.00,North,9,2.0,6.0,100,0.00,,,0.27,0.000000,,2013-02-23 05:32:00,
2013-02-22 23:41:00,59.0,59.0,-100.00,North,9,2.0,6.0,100,0.00,,,0.27,0.000000,,2013-02-23 05:41:00,
2013-02-22 23:51:00,59.0,59.0,-100.00,NNE,14,3.0,7.0,100,0.01,,,0.28,0.000000,,2013-02-23 05:51:00,